Time;durP1;ratioP1;P1;durP2;ratioP2;P2;SDS_P1;SDS_P2;PMS_P1;PMS_P2;Temp;Humidity;BMP_temperature;BMP_pressure;BME280_temperature;BME280_humidity;BME280_pressure;Samples;Min_cycle;Max_cycle;Signal;HPM_P1;HPM_P2
2021/11/17 02:32:31;;;;;;;33.20;25.20;;;;;;;-0.17;88.23;99980.65;434154;1309;141764;-64
2021/11/17 02:42:56;;;;;;;31.90;20.60;;;;;;;-0.32;88.32;99970.87;434873;1310;143216;-64
2021/11/17 02:53:20;;;;;;;33.80;24.20;;;;;;;-0.44;88.48;99962.77;434402;1309;142562;-64
2021/11/17 03:03:38;;;;;;;39.10;24.70;;;;;;;-0.54;88.49;99955.14;434464;1309;142801;-63
2021/11/17 03:14:00;;;;;;;35.90;23.80;;;;;;;-0.64;88.60;99956.30;435248;1310;145824;-64
2021/11/17 03:24:19;;;;;;;42.30;29.60;;;;;;;-0.68;88.68;99950.50;420479;1311;142943;-63
2021/11/17 03:34:56;;;;;;;46.50;31.50;;;;;;;-0.70;88.86;99949.67;428810;1310;142428;-63
2021/11/17 03:45:26;;;;;;;41.20;27.90;;;;;;;-0.71;88.89;99945.36;433896;1309;143425;-64
2021/11/17 03:55:59;;;;;;;34.60;25.40;;;;;;;-0.70;89.05;99944.85;433606;1312;142092;-64
2021/11/17 04:06:20;;;;;;;39.00;29.60;;;;;;;-0.67;89.22;99946.89;434297;1310;142620;-64
2021/11/17 04:16:42;;;;;;;36.00;24.10;;;;;;;-0.67;89.25;99944.30;432889;1308;142656;-63
2021/11/17 04:27:07;;;;;;;38.40;26.00;;;;;;;-0.62;89.62;99942.35;433716;1313;142101;-64
2021/11/17 04:37:30;;;;;;;35.80;25.40;;;;;;;-0.57;89.61;99941.42;433696;1313;144153;-63
2021/11/17 04:47:49;;;;;;;37.90;25.60;;;;;;;-0.53;89.52;99930.02;433601;1313;143912;-63
2021/11/17 04:58:18;;;;;;;35.10;24.00;;;;;;;-0.48;89.81;99921.88;433455;1313;207943;-64
2021/11/17 05:08:36;;;;;;;34.00;24.00;;;;;;;-0.50;89.44;99916.23;434079;1313;142115;-64
2021/11/17 05:18:50;;;;;;;35.00;24.20;;;;;;;-0.56;89.37;99908.39;434761;1312;142433;-64
2021/11/17 05:29:13;;;;;;;34.20;23.30;;;;;;;-0.59;89.43;99906.52;434748;1310;142485;-63
2021/11/17 05:39:33;;;;;;;38.70;25.90;;;;;;;-0.59;89.68;99904.13;434377;1310;144743;-64
2021/11/17 05:49:50;;;;;;;34.40;25.90;;;;;;;-0.63;89.28;99906.08;433882;1309;142827;-63
2021/11/17 06:00:20;;;;;;;38.90;25.70;;;;;;;-0.61;89.58;99906.58;432685;1312;144584;-63
2021/11/17 06:10:31;;;;;;;36.40;26.00;;;;;;;-0.40;89.85;99906.80;435031;1310;142655;-64
2021/11/17 06:20:40;;;;;;;42.30;30.20;;;;;;;-0.05;90.32;99913.02;434268;1307;165955;-64
2021/11/17 06:30:46;;;;;;;37.90;27.10;;;;;;;0.26;89.97;99917.35;432968;1312;143578;-64
2021/11/17 06:40:53;;;;;;;32.40;23.60;;;;;;;0.52;89.78;99918.83;429228;1312;144292;-62
2021/11/17 06:50:59;;;;;;;32.90;26.00;;;;;;;0.74;89.54;99914.46;422985;1311;143291;-64
2021/11/17 07:01:07;;;;;;;34.30;24.00;;;;;;;1.01;89.24;99914.15;432029;1312;141606;-63
2021/11/17 07:11:13;;;;;;;38.60;25.60;;;;;;;1.32;88.88;99915.60;434451;1311;142202;-64
2021/11/17 07:21:19;;;;;;;30.70;23.60;;;;;;;1.65;88.45;99918.52;432918;1311;142114;-64
2021/11/17 07:31:25;;;;;;;31.70;24.90;;;;;;;2.53;88.06;99918.86;434666;1311;143196;-64
2021/11/17 07:41:31;;;;;;;30.30;22.50;;;;;;;4.54;87.16;99912.34;425364;1314;145949;-63
2021/11/17 07:51:37;;;;;;;30.30;23.20;;;;;;;7.16;83.93;99913.97;432392;1312;142585;-62
2021/11/17 08:01:45;;;;;;;31.10;21.10;;;;;;;7.74;80.85;99911.37;434487;1313;142419;-62
2021/11/17 08:11:51;;;;;;;25.30;22.20;;;;;;;7.28;79.90;99915.20;432439;1312;142692;-63
2021/11/17 08:21:58;;;;;;;32.50;24.20;;;;;;;6.50;79.58;99916.09;424101;1312;434277;-62
2021/11/17 08:32:08;;;;;;;30.90;24.70;;;;;;;5.85;79.99;99913.98;421864;1312;141671;-64
2021/11/17 08:42:16;;;;;;;33.50;23.50;;;;;;;5.74;80.44;99915.83;432626;1312;142576;-63
2021/11/17 08:52:23;;;;;;;33.70;25.10;;;;;;;5.80;80.30;99912.96;429124;1311;142533;-62
2021/11/17 09:02:29;;;;;;;28.40;21.90;;;;;;;5.67;80.05;99919.02;432410;1314;142283;-61
2021/11/17 09:12:36;;;;;;;29.60;22.10;;;;;;;5.60;79.89;99913.74;427134;1312;142160;-69
2021/11/17 09:22:42;;;;;;;30.00;23.60;;;;;;;5.98;80.02;99901.16;430935;1315;141240;-68
2021/11/17 09:32:49;;;;;;;28.80;22.60;;;;;;;6.67;79.06;99892.98;433930;1315;142641;-65
2021/11/17 09:42:57;;;;;;;27.70;21.50;;;;;;;7.07;77.92;99887.42;434683;1312;141780;-67
2021/11/17 09:53:07;;;;;;;27.40;21.10;;;;;;;7.19;77.42;99880.23;427163;1310;142677;-73
2021/11/17 10:03:16;;;;;;;27.60;20.80;;;;;;;7.32;77.01;99863.27;433859;1311;142466;-65
2021/11/17 10:13:30;;;;;;;28.50;23.10;;;;;;;7.33;76.38;99866.76;434715;1312;141291;-68
2021/11/17 10:23:54;;;;;;;27.20;21.90;;;;;;;7.26;75.98;99865.80;433783;1312;141867;-61
2021/11/17 10:34:06;;;;;;;28.40;21.80;;;;;;;7.18;75.65;99870.70;426634;1312;142073;-59
2021/11/17 10:44:12;;;;;;;26.80;21.00;;;;;;;7.03;75.82;99864.95;433283;1313;141694;-70
2021/11/17 10:54:22;;;;;;;29.60;20.90;;;;;;;6.86;75.66;99867.43;433800;1312;141554;-69
2021/11/17 11:04:34;;;;;;;28.10;21.10;;;;;;;6.84;75.73;99862.68;426165;1313;143919;-62
2021/11/17 11:14:46;;;;;;;29.30;21.70;;;;;;;6.55;75.56;99862.35;432790;1313;198744;-66
2021/11/17 11:24:54;;;;;;;31.30;22.70;;;;;;;6.31;75.97;99847.02;434702;1313;142398;-65
2021/11/17 11:35:22;;;;;;;32.50;23.80;;;;;;;6.18;76.06;99835.73;432504;1313;143417;-70
2021/11/17 11:45:47;;;;;;;28.20;23.90;;;;;;;6.05;76.09;99825.48;433869;1313;142110;-60
2021/11/17 11:56:19;;;;;;;29.20;23.00;;;;;;;6.12;76.33;99816.86;434413;1314;142242;-61
2021/11/17 12:06:32;;;;;;;29.90;22.60;;;;;;;6.19;76.49;99813.63;420394;1314;143536;-61
2021/11/17 12:16:48;;;;;;;33.90;26.20;;;;;;;6.14;76.40;99812.07;421931;1312;144155;-60
2021/11/17 12:27:04;;;;;;;36.60;25.70;;;;;;;6.01;76.50;99799.75;434002;1313;142060;-66
2021/11/17 12:37:20;;;;;;;31.10;24.00;;;;;;;5.99;76.61;99797.02;434834;1313;141909;-69
2021/11/17 12:47:31;;;;;;;34.50;25.40;;;;;;;5.98;76.67;99798.80;434713;1313;141489;-66
2021/11/17 12:57:51;;;;;;;35.10;25.00;;;;;;;5.92;76.80;99792.11;434852;1313;142666;-71
2021/11/17 13:08:00;;;;;;;36.00;25.50;;;;;;;5.94;76.80;99781.92;434390;1313;142117;-69
2021/11/17 13:18:23;;;;;;;37.30;25.90;;;;;;;5.97;76.70;99775.71;433481;1313;142285;-60
2021/11/17 13:28:39;;;;;;;34.70;25.30;;;;;;;5.96;76.66;99783.06;433264;1313;143114;-60
2021/11/17 13:38:56;;;;;;;34.30;25.60;;;;;;;5.95;76.82;99785.73;433720;1313;143830;-64
2021/11/17 13:49:17;;;;;;;32.70;24.30;;;;;;;5.89;76.85;99786.66;433040;1313;142791;-66
2021/11/17 13:59:23;;;;;;;38.60;25.80;;;;;;;5.79;76.83;99779.94;434473;1312;142022;-65
2021/11/17 14:09:30;;;;;;;37.10;26.10;;;;;;;5.67;77.03;99778.13;433778;1312;142306;-61
2021/11/17 14:19:37;;;;;;;39.20;29.80;;;;;;;5.62;77.07;99780.61;432728;1313;141840;-62
2021/11/17 14:29:46;;;;;;;38.40;28.10;;;;;;;5.55;77.29;99781.08;433963;1312;142497;-63
2021/11/17 14:39:51;;;;;;;42.80;29.90;;;;;;;5.56;77.64;99781.58;429158;1312;141573;-65
2021/11/17 14:49:58;;;;;;;42.30;30.80;;;;;;;5.57;77.36;99784.95;418467;1311;141475;-62
2021/11/17 15:00:05;;;;;;;39.10;28.80;;;;;;;5.56;77.67;99786.24;433824;1312;141839;-61
2021/11/17 15:10:13;;;;;;;45.50;31.20;;;;;;;5.50;77.75;99791.70;434384;1312;141734;-59
2021/11/17 15:20:19;;;;;;;48.20;34.20;;;;;;;5.48;77.96;99793.14;428910;1310;141174;-62
2021/11/17 15:30:28;;;;;;;40.70;31.80;;;;;;;5.51;77.97;99786.44;418834;1308;20001852;-67
2021/11/17 15:40:38;;;;;;;47.30;35.40;;;;;;;5.53;78.23;99781.33;434568;1311;142407;-65
2021/11/17 15:50:49;;;;;;;43.70;33.90;;;;;;;5.52;78.06;99775.13;432818;1312;144817;-64
2021/11/17 16:00:55;;;;;;;54.30;37.20;;;;;;;5.53;78.27;99772.98;418972;1312;141131;-64
2021/11/17 16:11:02;;;;;;;50.10;33.70;;;;;;;5.47;78.42;99767.85;425218;1311;142153;-59
2021/11/17 16:21:09;;;;;;;43.20;32.60;;;;;;;5.45;78.50;99771.02;422562;1312;302325;-62
2021/11/17 16:31:17;;;;;;;50.10;33.70;;;;;;;5.44;78.55;99784.09;434411;1311;141739;-62
2021/11/17 16:41:23;;;;;;;51.00;34.50;;;;;;;5.47;78.58;99791.80;430789;1313;142931;-61
2021/11/17 16:51:29;;;;;;;53.90;37.00;;;;;;;5.45;78.69;99791.02;434007;1312;142020;-61
2021/11/17 17:01:35;;;;;;;53.40;36.50;;;;;;;5.48;78.50;99789.86;432180;1313;141598;-61
2021/11/17 17:11:41;;;;;;;50.10;37.90;;;;;;;5.53;78.45;99781.33;432406;1312;143885;-61
2021/11/17 17:21:47;;;;;;;55.40;40.30;;;;;;;5.52;78.50;99781.00;430962;1313;142560;-60
2021/11/17 17:31:54;;;;;;;56.30;39.70;;;;;;;5.53;78.55;99782.00;422406;1312;142230;-63
2021/11/17 17:42:00;;;;;;;64.10;39.70;;;;;;;5.51;78.71;99785.58;433992;1311;142898;-59
2021/11/17 17:52:09;;;;;;;67.30;45.30;;;;;;;5.46;78.58;99782.83;434571;1311;142837;-60
2021/11/17 18:02:16;;;;;;;67.20;40.90;;;;;;;5.42;78.63;99794.60;433239;1311;142617;-59
2021/11/17 18:12:22;;;;;;;62.40;39.50;;;;;;;5.42;78.69;99793.58;413953;1312;10002829;-60
2021/11/17 18:22:28;;;;;;;70.90;42.00;;;;;;;5.38;78.72;99797.20;419114;1311;142732;-61
2021/11/17 18:32:36;;;;;;;72.50;43.30;;;;;;;5.38;78.83;99792.70;418929;1309;141760;-62
2021/11/17 18:42:43;;;;;;;65.00;41.50;;;;;;;5.36;78.96;99793.11;418351;1311;142399;-59
2021/11/17 18:52:51;;;;;;;94.70;56.00;;;;;;;5.35;79.09;99793.16;426901;1312;142371;-59
2021/11/17 19:02:59;;;;;;;65.80;45.20;;;;;;;5.34;79.09;99789.01;421365;1312;141809;-62
2021/11/17 19:13:02;;;;;;;74.00;42.90;;;;;;;5.40;79.32;99797.61;426805;1312;142214;-59
2021/11/17 19:23:09;;;;;;;109.70;62.60;;;;;;;5.38;79.13;99803.80;425345;1312;142220;-59
2021/11/17 19:33:17;;;;;;;59.50;40.10;;;;;;;5.38;79.09;99816.64;418527;1312;143274;-61
2021/11/17 19:43:23;;;;;;;59.10;40.70;;;;;;;5.34;79.31;99821.14;431851;1310;143034;-61
2021/11/17 19:53:30;;;;;;;57.60;39.60;;;;;;;5.29;79.25;99818.00;422330;1311;142850;-65
2021/11/17 20:03:37;;;;;;;54.70;38.40;;;;;;;5.27;79.21;99829.36;422849;1312;142268;-67
2021/11/17 20:13:43;;;;;;;59.50;38.60;;;;;;;5.24;79.38;99835.95;433065;1310;141628;-64
2021/11/17 20:23:50;;;;;;;57.00;39.30;;;;;;;5.15;79.54;99844.06;430836;1313;141976;-63
2021/11/17 20:33:57;;;;;;;58.20;39.60;;;;;;;5.13;79.55;99847.45;419022;1312;141366;-64
2021/11/17 20:44:05;;;;;;;48.30;33.80;;;;;;;5.09;79.68;99848.95;431680;1313;142433;-62
2021/11/17 20:54:12;;;;;;;52.60;34.40;;;;;;;5.07;79.85;99847.47;433414;1309;141782;-64
2021/11/17 21:04:19;;;;;;;50.90;34.50;;;;;;;5.01;79.84;99849.63;432624;1309;143755;-61
2021/11/17 21:14:33;;;;;;;47.20;30.60;;;;;;;4.96;79.76;99850.31;433145;1312;142145;-64
2021/11/17 21:24:42;;;;;;;39.10;28.20;;;;;;;4.91;79.92;99848.92;429404;1312;142339;-62
2021/11/17 21:34:49;;;;;;;38.50;26.00;;;;;;;4.85;79.84;99845.67;419056;1312;142893;-62
2021/11/17 21:44:57;;;;;;;35.50;24.50;;;;;;;4.79;79.88;99846.05;421148;1312;142667;-62
2021/11/17 21:55:06;;;;;;;31.40;23.40;;;;;;;4.72;80.06;99844.73;419812;1312;142656;-62
2021/11/17 22:05:16;;;;;;;33.90;24.20;;;;;;;4.69;80.10;99855.77;420661;1313;141604;-63
2021/11/17 22:15:26;;;;;;;38.40;24.80;;;;;;;4.67;80.35;99864.70;417661;1313;143058;-63
2021/11/17 22:25:33;;;;;;;32.60;22.80;;;;;;;4.61;80.81;99880.15;418936;1311;143713;-64
2021/11/17 22:35:40;;;;;;;28.60;21.30;;;;;;;4.59;81.20;99881.08;418524;1312;141637;-62
2021/11/17 22:45:47;;;;;;;28.40;19.90;;;;;;;4.51;81.62;99883.46;418243;1312;143384;-62
2021/11/17 22:55:53;;;;;;;30.90;19.90;;;;;;;4.40;81.87;99867.16;418547;1313;143257;-64
2021/11/17 23:06:01;;;;;;;29.80;21.90;;;;;;;4.35;82.10;99865.28;417624;1312;141496;-63
2021/11/17 23:16:06;;;;;;;;;;;;;;;4.31;82.38;99871.63;418873;1313;142657;-63
2021/11/17 23:26:15;;;;;;;24.90;17.40;;;;;;;4.30;82.43;99871.14;418666;1311;127770;-62
2021/11/17 23:36:21;;;;;;;22.10;16.60;;;;;;;4.28;82.62;99867.39;428669;1310;142128;-61
2021/11/17 23:46:28;;;;;;;20.10;15.10;;;;;;;4.25;82.17;99868.88;433304;1312;145442;-62
2021/11/17 23:56:34;;;;;;;19.30;14.50;;;;;;;4.26;82.11;99873.70;422608;1312;142939;-62
